Time;durP1;ratioP1;P1;durP2;ratioP2;P2;SDS_P1;SDS_P2;PMS_P1;PMS_P2;Temp;Humidity;BMP_temperature;BMP_pressure;BME280_temperature;BME280_humidity;BME280_pressure;Samples;Min_cycle;Max_cycle;Signal;HPM_P1;HPM_P2
2022/05/28 00:00:59;;;;;;;1.00;0.30;;;17.80;90.80;;;;;;5116688;27;20076;-85
2022/05/28 00:03:27;;;;;;;1.80;0.50;;;17.80;90.90;;;;;;5134587;27;20079;-83
2022/05/28 00:05:53;;;;;;;0.82;0.30;;;17.80;90.60;;;;;;5134606;27;20023;-85
2022/05/28 00:08:18;;;;;;;0.60;0.20;;;17.80;89.40;;;;;;5116738;27;20042;-84
2022/05/28 00:10:45;;;;;;;0.77;0.30;;;17.70;87.90;;;;;;5116231;27;20495;-84
2022/05/28 00:13:11;;;;;;;1.00;0.30;;;17.70;87.20;;;;;;5134726;27;20023;-84
2022/05/28 00:15:37;;;;;;;1.10;0.30;;;17.70;86.60;;;;;;5134682;27;20027;-85
2022/05/28 00:18:03;;;;;;;0.45;0.20;;;17.70;86.30;;;;;;5116301;27;20027;-86
2022/05/28 00:20:29;;;;;;;1.90;0.20;;;17.70;85.80;;;;;;5134316;27;20031;-82
2022/05/28 00:22:55;;;;;;;0.80;0.25;;;17.70;85.40;;;;;;5116099;27;20023;-84
2022/05/28 00:25:21;;;;;;;0.68;0.20;;;17.70;84.80;;;;;;5134312;27;20539;-85
2022/05/28 00:27:47;;;;;;;0.65;0.22;;;17.70;84.50;;;;;;5134482;27;20157;-84
2022/05/28 00:30:15;;;;;;;0.60;0.25;;;17.60;84.50;;;;;;5115955;27;20122;-85
2022/05/28 00:32:42;;;;;;;0.40;0.30;;;17.70;84.70;;;;;;5134383;27;20045;-85
2022/05/28 00:35:11;;;;;;;0.63;0.20;;;17.70;84.90;;;;;;5116021;27;20046;-84
2022/05/28 00:37:37;;;;;;;0.47;0.47;;;17.60;85.30;;;;;;5134047;27;20027;-85
2022/05/28 00:40:08;;;;;;;0.35;0.35;;;17.60;85.70;;;;;;5134348;27;20576;-84
2022/05/28 00:42:33;;;;;;;1.40;0.30;;;17.60;86.50;;;;;;5133222;27;20047;-86
2022/05/28 00:44:59;;;;;;;0.80;0.28;;;17.50;87.40;;;;;;5115460;27;20050;-86
2022/05/28 00:47:25;;;;;;;0.52;0.30;;;17.50;87.90;;;;;;5133885;27;20050;-84
2022/05/28 00:49:52;;;;;;;4.32;0.25;;;17.40;89.00;;;;;;5133738;27;20054;-86
2022/05/28 00:52:20;;;;;;;1.60;0.30;;;17.40;90.20;;;;;;5134067;27;20030;-86
2022/05/28 00:54:47;;;;;;;0.82;0.30;;;17.30;90.80;;;;;;5134363;27;20011;-85
2022/05/28 00:57:15;;;;;;;1.17;0.30;;;17.20;91.10;;;;;;5114797;27;20027;-86
2022/05/28 00:59:43;;;;;;;3.42;0.20;;;17.20;91.30;;;;;;5114531;27;20019;-86
2022/05/28 01:02:23;;;;;;;2.35;0.30;;;17.10;91.00;;;;;;5133857;27;20027;-85
2022/05/28 01:05:01;;;;;;;0.52;0.30;;;17.20;87.40;;;;;;5133957;27;20042;-84
2022/05/28 01:08:11;;;;;;;0.40;0.30;;;17.10;81.00;;;;;;5115755;27;20027;-86
2022/05/28 01:10:49;;;;;;;0.60;0.30;;;17.20;77.20;;;;;;5029902;28;20057;-85
2022/05/28 01:13:25;;;;;;;1.85;0.20;;;17.20;75.90;;;;;;5030623;28;20029;-86
2022/05/28 01:16:10;;;;;;;3.60;0.40;;;17.20;74.70;;;;;;5081398;27;20031;-86
2022/05/28 01:18:42;;;;;;;1.38;0.25;;;17.20;74.10;;;;;;5133685;27;20396;-86
2022/05/28 01:21:20;;;;;;;0.70;0.30;;;17.20;74.20;;;;;;5117032;27;20031;-84
2022/05/28 01:23:55;;;;;;;0.63;0.28;;;17.20;74.10;;;;;;5115681;27;20049;-86
2022/05/28 01:26:56;;;;;;;0.32;0.20;;;17.20;73.80;;;;;;5133609;27;20023;-85
2022/05/28 01:29:23;;;;;;;1.17;0.30;;;17.20;74.00;;;;;;5115212;27;20066;-86
2022/05/28 01:31:49;;;;;;;1.20;0.30;;;17.10;73.60;;;;;;5115008;27;20130;-86
2022/05/28 01:34:18;;;;;;;0.60;0.30;;;17.10;73.30;;;;;;5133111;27;20027;-85
2022/05/28 01:36:44;;;;;;;1.23;0.30;;;17.10;73.40;;;;;;5133256;27;20521;-85
2022/05/28 01:39:11;;;;;;;0.70;0.30;;;17.00;73.10;;;;;;5133428;27;20016;-85
2022/05/28 01:41:38;;;;;;;0.20;0.20;;;17.00;72.50;;;;;;5132927;27;20051;-84
2022/05/28 01:44:07;;;;;;;2.83;0.20;;;17.00;71.90;;;;;;5133143;27;20507;-85
2022/05/28 01:46:34;;;;;;;0.38;0.30;;;16.90;71.40;;;;;;5133375;27;20144;-85
2022/05/28 01:49:01;;;;;;;0.85;0.38;;;17.00;71.60;;;;;;5133237;27;20035;-86
2022/05/28 01:51:34;;;;;;;0.90;0.20;;;16.90;71.70;;;;;;5133047;27;20060;-85
2022/05/28 01:54:09;;;;;;;1.17;0.28;;;16.90;71.90;;;;;;5114624;27;20550;-84
2022/05/28 01:56:38;;;;;;;1.17;0.40;;;16.90;71.80;;;;;;5114821;27;20082;-86
2022/05/28 01:59:04;;;;;;;0.52;0.30;;;16.90;72.00;;;;;;5114692;27;20046;-86
2022/05/28 02:01:30;;;;;;;1.48;0.30;;;16.80;72.00;;;;;;5114337;27;20026;-85
2022/05/28 02:04:01;;;;;;;0.93;0.30;;;16.80;72.40;;;;;;5114760;27;20035;-86
2022/05/28 02:06:27;;;;;;;1.08;0.28;;;16.80;72.90;;;;;;5133072;27;20027;-87
2022/05/28 02:08:55;;;;;;;0.60;0.30;;;16.70;73.10;;;;;;5114404;27;20050;-86
2022/05/28 02:11:27;;;;;;;2.45;0.43;;;16.80;73.50;;;;;;5132586;27;20031;-85
2022/05/28 02:14:05;;;;;;;1.83;0.40;;;16.70;73.60;;;;;;5132545;27;20023;-86
2022/05/28 02:16:40;;;;;;;5.35;0.28;;;16.70;73.80;;;;;;5114595;27;20510;-86
2022/05/28 02:19:20;;;;;;;5.10;0.40;;;16.70;74.10;;;;;;5132876;27;20698;-85
2022/05/28 02:21:57;;;;;;;3.72;0.85;;;16.60;74.30;;;;;;5114146;27;20065;-85
2022/05/28 02:24:25;;;;;;;;;;;16.60;75.20;;;;;;5132883;27;20031;-85
2022/05/28 02:27:02;;;;;;;2.03;0.40;;;16.60;75.00;;;;;;5132549;27;19914;-86
2022/05/28 02:29:28;;;;;;;;;;;16.60;75.10;;;;;;5114416;27;20487;-86
2022/05/28 02:31:54;;;;;;;1.20;0.30;;;16.60;75.50;;;;;;5132458;27;19931;-86
2022/05/28 02:34:19;;;;;;;;;;;16.60;75.70;;;;;;5132683;27;20039;-86
2022/05/28 02:36:45;;;;;;;1.83;0.30;;;16.50;76.30;;;;;;5132540;27;19911;-86
2022/05/28 02:39:11;;;;;;;;;;;16.50;76.60;;;;;;5132845;27;20491;-85
2022/05/28 02:41:38;;;;;;;2.85;0.32;;;16.50;77.10;;;;;;5132214;27;19908;-86
2022/05/28 02:44:04;;;;;;;0.95;0.40;;;16.50;77.00;;;;;;5113857;27;20602;-86
2022/05/28 02:46:30;;;;;;;1.40;0.30;;;16.40;77.10;;;;;;5132362;27;20027;-87
2022/05/28 02:48:56;;;;;;;3.38;0.40;;;16.40;77.80;;;;;;5132323;27;20031;-87
2022/05/28 02:51:22;;;;;;;;;;;16.40;78.50;;;;;;5114806;27;20510;-87
2022/05/28 02:53:50;;;;;;;4.05;0.40;;;16.40;79.30;;;;;;5132371;27;20098;-84
2022/05/28 02:56:16;;;;;;;2.22;0.40;;;16.30;79.70;;;;;;5114044;28;20035;-86
2022/05/28 02:58:42;;;;;;;0.75;0.30;;;16.30;80.40;;;;;;5131999;27;20056;-86
2022/05/28 03:01:16;;;;;;;;;;;16.30;81.10;;;;;;5132462;27;20035;-85
2022/05/28 03:03:42;;;;;;;0.80;0.30;;;16.30;82.70;;;;;;5132245;27;19915;-87
2022/05/28 03:06:08;;;;;;;3.90;0.30;;;16.20;82.50;;;;;;5113762;27;20689;-88
2022/05/28 03:08:34;;;;;;;;;;;16.20;83.10;;;;;;5132433;27;20035;-86
2022/05/28 03:10:59;;;;;;;2.60;0.40;;;16.10;83.50;;;;;;5131918;28;19903;-86
2022/05/28 03:13:25;;;;;;;0.80;0.28;;;16.10;83.60;;;;;;5132083;28;20066;-86
2022/05/28 03:15:51;;;;;;;;;;;16.10;83.90;;;;;;5113871;28;20023;-86
2022/05/28 03:18:16;;;;;;;1.00;0.35;;;16.10;84.50;;;;;;5132179;28;20280;-86
2022/05/28 03:20:42;;;;;;;1.45;0.40;;;16.10;84.40;;;;;;5113978;28;20133;-86
2022/05/28 03:23:08;;;;;;;0.70;0.30;;;16.10;84.60;;;;;;5131567;28;20035;-87
2022/05/28 03:25:33;;;;;;;2.15;0.43;;;16.10;84.80;;;;;;5113397;28;20490;-85
2022/05/28 03:27:59;;;;;;;;;;;16.10;85.30;;;;;;5131596;27;20105;-87
2022/05/28 03:30:25;;;;;;;3.13;0.30;;;16.10;85.90;;;;;;5113917;28;19903;-86
2022/05/28 03:32:50;;;;;;;1.23;0.43;;;16.10;86.00;;;;;;5131941;27;20502;-85
2022/05/28 03:35:16;;;;;;;0.80;0.30;;;16.10;86.20;;;;;;5135290;27;20391;-87
2022/05/28 03:37:42;;;;;;;;;;;16.10;86.20;;;;;;5136203;27;20376;-86
2022/05/28 03:40:08;;;;;;;0.50;0.30;;;16.10;86.10;;;;;;5135475;27;19907;-86
2022/05/28 03:42:33;;;;;;;2.97;0.50;;;16.10;86.00;;;;;;5135490;27;20039;-86
2022/05/28 03:44:59;;;;;;;;;;;16.10;85.90;;;;;;5116555;27;20046;-87
2022/05/28 03:47:25;;;;;;;7.88;0.68;;;16.10;85.10;;;;;;5116193;27;19954;-86
2022/05/28 03:49:50;;;;;;;3.13;0.40;;;16.10;85.00;;;;;;5135635;27;20027;-86
2022/05/28 03:52:16;;;;;;;;;;;16.10;85.10;;;;;;5117588;27;20026;-86
2022/05/28 03:54:45;;;;;;;2.05;0.45;;;16.10;85.70;;;;;;5135451;27;20618;-86
2022/05/28 03:57:24;;;;;;;0.68;0.30;;;16.10;85.70;;;;;;5117071;27;20102;-86
2022/05/28 03:59:50;;;;;;;1.30;0.30;;;16.20;85.60;;;;;;5135265;27;20038;-86
2022/05/28 04:02:15;;;;;;;;;;;16.10;85.30;;;;;;5135981;27;20015;-87
2022/05/28 04:04:41;;;;;;;1.00;0.32;;;16.20;86.30;;;;;;5135460;27;20006;-86
2022/05/28 04:07:09;;;;;;;2.65;0.52;;;16.20;85.20;;;;;;5117087;27;20686;-86
2022/05/28 04:09:34;;;;;;;4.03;0.88;;;16.20;85.20;;;;;;5135274;27;20027;-86
2022/05/28 04:12:00;;;;;;;;;;;16.20;84.70;;;;;;5135410;27;20110;-86
2022/05/28 04:14:26;;;;;;;0.65;0.30;;;16.20;84.60;;;;;;5134569;27;19958;-86
2022/05/28 04:16:51;;;;;;;0.60;0.30;;;16.30;85.00;;;;;;5116704;27;20065;-86
2022/05/28 04:19:17;;;;;;;0.85;0.20;;;16.30;84.90;;;;;;5135168;27;20205;-86
2022/05/28 04:21:42;;;;;;;;;;;16.30;84.40;;;;;;5116979;27;20570;-84
2022/05/28 04:24:08;;;;;;;6.15;0.50;;;16.30;83.60;;;;;;5134609;27;20390;-86
2022/05/28 04:26:34;;;;;;;3.65;0.60;;;16.30;83.30;;;;;;5115308;27;20376;-85
2022/05/28 04:28:59;;;;;;;;;;;16.40;84.10;;;;;;5134528;27;20027;-85
2022/05/28 04:31:25;;;;;;;1.55;0.68;;;16.50;84.50;;;;;;5134758;27;19903;-85
2022/05/28 04:33:51;;;;;;;2.00;0.30;;;16.50;83.90;;;;;;5134232;27;20027;-86
2022/05/28 04:36:16;;;;;;;;;;;16.60;83.80;;;;;;5135220;27;20034;-84
2022/05/28 04:38:42;;;;;;;4.80;0.40;;;16.70;83.80;;;;;;5116560;27;19911;-85
2022/05/28 04:41:08;;;;;;;1.83;0.50;;;16.70;85.40;;;;;;5133976;27;20114;-83
2022/05/28 04:43:34;;;;;;;1.73;0.40;;;16.70;86.80;;;;;;5133436;27;20050;-85
2022/05/28 04:46:00;;;;;;;2.83;0.52;;;16.70;86.40;;;;;;5132224;27;20015;-85
2022/05/28 04:48:26;;;;;;;1.95;0.40;;;16.90;85.10;;;;;;5115455;27;20020;-85
2022/05/28 04:50:51;;;;;;;1.75;0.30;;;17.10;83.80;;;;;;5115920;27;20030;-86
2022/05/28 04:53:17;;;;;;;2.28;0.93;;;17.30;82.30;;;;;;5133819;27;20549;-86
2022/05/28 04:55:45;;;;;;;2.05;0.73;;;17.40;82.20;;;;;;5115778;27;20045;-84
2022/05/28 04:58:12;;;;;;;4.20;0.40;;;17.50;81.90;;;;;;5133506;27;20027;-84
2022/05/28 05:00:39;;;;;;;4.32;1.38;;;17.60;81.40;;;;;;5133513;27;20080;-84
2022/05/28 05:03:05;;;;;;;3.58;0.90;;;17.70;79.40;;;;;;5133497;27;20029;-85
2022/05/28 05:05:31;;;;;;;2.67;0.40;;;17.80;78.30;;;;;;5133809;27;20114;-83
2022/05/28 05:07:56;;;;;;;1.67;0.40;;;17.90;77.50;;;;;;5133440;27;20364;-85
2022/05/28 05:10:22;;;;;;;2.78;0.60;;;18.00;77.00;;;;;;5133372;27;20042;-85
2022/05/28 05:12:48;;;;;;;1.10;0.30;;;18.00;75.40;;;;;;5115336;27;20026;-84
2022/05/28 05:15:14;;;;;;;2.45;0.95;;;17.90;73.90;;;;;;5115311;27;20030;-84
2022/05/28 05:17:40;;;;;;;2.78;0.50;;;17.90;74.40;;;;;;5115250;27;20054;-85
2022/05/28 05:20:07;;;;;;;2.58;0.50;;;17.90;74.50;;;;;;5133355;27;20054;-85
2022/05/28 05:22:33;;;;;;;3.28;0.50;;;18.00;74.50;;;;;;5133116;27;20031;-84
2022/05/28 05:24:59;;;;;;;2.60;0.60;;;18.10;73.30;;;;;;5133011;27;20049;-82
2022/05/28 05:27:24;;;;;;;1.13;0.45;;;18.10;71.20;;;;;;5133242;27;20034;-84
2022/05/28 05:29:50;;;;;;;2.45;0.50;;;18.30;70.90;;;;;;5132712;27;20106;-85
2022/05/28 05:32:16;;;;;;;3.10;0.57;;;18.50;69.00;;;;;;5132778;27;20045;-84
2022/05/28 05:34:44;;;;;;;4.45;0.73;;;18.50;65.50;;;;;;5114972;27;20038;-84
2022/05/28 05:37:10;;;;;;;4.47;0.68;;;18.50;62.80;;;;;;5133135;27;20019;-84
2022/05/28 05:39:35;;;;;;;2.08;0.55;;;18.40;62.60;;;;;;5114623;27;20440;-84
2022/05/28 05:42:01;;;;;;;2.92;0.40;;;18.40;59.30;;;;;;5132870;27;20082;-84
2022/05/28 05:44:27;;;;;;;3.83;1.20;;;18.20;60.00;;;;;;5131875;27;20042;-86
2022/05/28 05:46:52;;;;;;;3.83;0.73;;;18.10;59.80;;;;;;5132535;27;20372;-83
2022/05/28 05:49:18;;;;;;;4.65;0.70;;;18.10;60.10;;;;;;5132681;27;20109;-83
2022/05/28 05:51:46;;;;;;;2.33;0.50;;;18.20;58.20;;;;;;5132432;27;20031;-85
2022/05/28 05:54:12;;;;;;;4.65;0.93;;;18.20;59.10;;;;;;5114123;27;20023;-84
2022/05/28 05:56:38;;;;;;;2.55;1.20;;;18.30;60.30;;;;;;5132077;27;20035;-83
2022/05/28 05:59:04;;;;;;;5.80;0.60;;;18.40;60.60;;;;;;5132378;27;20023;-84
2022/05/28 06:01:30;;;;;;;4.18;1.00;;;18.50;58.20;;;;;;5132377;27;20035;-84
2022/05/28 06:03:56;;;;;;;2.42;0.50;;;18.70;57.40;;;;;;5131875;27;20028;-83
2022/05/28 06:06:21;;;;;;;2.20;0.70;;;18.70;58.00;;;;;;5114231;27;20028;-84
2022/05/28 06:08:48;;;;;;;4.78;0.70;;;18.70;58.30;;;;;;5132237;27;20041;-83
2022/05/28 06:11:14;;;;;;;3.55;0.75;;;18.70;57.90;;;;;;5114147;27;20059;-83
2022/05/28 06:13:40;;;;;;;4.32;0.63;;;18.80;57.90;;;;;;5131294;27;20029;-84
2022/05/28 06:16:06;;;;;;;1.92;0.50;;;18.90;58.20;;;;;;5106182;28;20138;-84
2022/05/28 06:18:33;;;;;;;6.45;0.60;;;18.90;58.20;;;;;;5112136;28;20077;-85
2022/05/28 06:20:59;;;;;;;3.58;0.60;;;19.00;58.20;;;;;;5092991;27;20031;-80
2022/05/28 06:23:26;;;;;;;5.47;0.68;;;19.10;57.60;;;;;;5112026;27;20034;-81
2022/05/28 06:25:52;;;;;;;3.83;0.90;;;19.20;55.60;;;;;;5112188;27;20035;-79
2022/05/28 06:28:17;;;;;;;3.03;0.60;;;19.30;53.50;;;;;;5112364;27;20134;-80
2022/05/28 06:30:44;;;;;;;2.08;0.45;;;19.20;50.90;;;;;;5112070;27;20551;-81
2022/05/28 06:33:11;;;;;;;2.40;0.50;;;19.20;50.90;;;;;;5111611;27;20027;-81
2022/05/28 06:35:37;;;;;;;3.40;0.63;;;19.30;51.20;;;;;;5130001;27;20035;-80
2022/05/28 06:38:04;;;;;;;2.03;0.45;;;19.60;51.30;;;;;;5112421;27;20080;-81
2022/05/28 06:40:29;;;;;;;1.90;0.50;;;19.90;50.50;;;;;;5112252;27;20030;-81
2022/05/28 06:42:56;;;;;;;2.03;0.63;;;20.00;49.60;;;;;;5130127;27;20051;-82
2022/05/28 06:45:24;;;;;;;3.40;1.00;;;20.10;48.40;;;;;;5131043;27;20051;-83
2022/05/28 06:47:50;;;;;;;6.40;0.73;;;20.10;47.60;;;;;;5131025;27;20012;-82
2022/05/28 06:53:02;;;;;;;2.40;0.68;;;19.80;46.40;;;;;;5131077;27;20038;-83
2022/05/28 06:55:27;;;;;;;2.83;0.50;;;19.70;47.80;;;;;;5131108;27;20023;-83
2022/05/28 06:57:53;;;;;;;6.40;1.05;;;19.60;47.50;;;;;;5112157;27;20077;-83
2022/05/28 07:00:20;;;;;;;3.92;0.60;;;19.60;46.70;;;;;;5112214;27;20019;-80
2022/05/28 07:02:46;;;;;;;3.60;0.80;;;19.50;46.50;;;;;;5112055;27;20023;-83
2022/05/28 07:05:14;;;;;;;3.95;0.70;;;19.50;46.70;;;;;;5111500;28;20091;-83
2022/05/28 07:07:41;;;;;;;7.35;0.50;;;19.40;46.50;;;;;;5129143;27;20023;-83
2022/05/28 07:10:07;;;;;;;5.43;0.63;;;19.30;46.90;;;;;;5110935;28;20471;-82
2022/05/28 07:12:33;;;;;;;5.47;1.75;;;19.30;47.60;;;;;;5129727;28;20118;-81
2022/05/28 07:14:59;;;;;;;8.70;0.90;;;19.30;46.60;;;;;;5128956;28;20122;-81
2022/05/28 07:17:25;;;;;;;2.80;0.57;;;19.50;46.40;;;;;;5111677;28;20030;-82
2022/05/28 07:19:51;;;;;;;5.55;0.60;;;19.70;47.00;;;;;;5130009;28;20023;-79
2022/05/28 07:22:17;;;;;;;3.45;0.80;;;19.60;46.00;;;;;;5129902;28;20035;-81
2022/05/28 07:24:43;;;;;;;3.25;0.50;;;19.60;45.80;;;;;;5111253;28;20043;-80
2022/05/28 07:27:11;;;;;;;7.38;0.82;;;19.60;46.40;;;;;;5129876;28;20437;-81
2022/05/28 07:29:37;;;;;;;5.25;0.60;;;19.50;45.30;;;;;;5129765;28;20027;-80
2022/05/28 07:32:03;;;;;;;5.47;0.82;;;19.50;45.50;;;;;;5111340;28;20118;-81
2022/05/28 07:34:28;;;;;;;3.80;0.60;;;19.30;43.60;;;;;;5129706;28;20073;-81
2022/05/28 07:36:54;;;;;;;10.90;0.80;;;19.20;44.20;;;;;;5111527;28;20458;-80
2022/05/28 07:39:20;;;;;;;3.65;0.93;;;19.30;44.50;;;;;;5111404;28;20072;-81
2022/05/28 07:41:46;;;;;;;2.00;0.50;;;19.40;45.10;;;;;;5108095;28;20130;-83
2022/05/28 07:44:12;;;;;;;5.40;0.80;;;19.60;45.50;;;;;;5109719;28;20504;-83
2022/05/28 07:46:37;;;;;;;6.35;0.60;;;20.10;45.60;;;;;;5109753;28;20037;-82
2022/05/28 07:49:04;;;;;;;4.63;0.98;;;20.70;44.40;;;;;;5109340;28;20024;-81
2022/05/28 07:51:30;;;;;;;6.03;1.08;;;21.50;43.30;;;;;;5109639;28;20023;-83
2022/05/28 07:53:56;;;;;;;3.78;1.08;;;22.40;42.00;;;;;;5108129;28;20369;-83
2022/05/28 07:56:22;;;;;;;2.58;0.52;;;22.80;40.20;;;;;;5108703;28;20640;-81
2022/05/28 07:58:50;;;;;;;2.88;1.15;;;23.00;39.90;;;;;;5109191;28;20038;-80
2022/05/28 08:01:25;;;;;;;4.45;0.90;;;23.20;38.70;;;;;;5109907;28;20031;-83
2022/05/28 08:03:51;;;;;;;4.88;0.70;;;23.60;38.50;;;;;;5108645;28;20032;-84
2022/05/28 08:06:18;;;;;;;11.07;1.20;;;24.00;38.10;;;;;;5110398;28;20024;-85
2022/05/28 08:08:44;;;;;;;3.58;0.80;;;24.20;36.60;;;;;;5110142;28;20063;-83
2022/05/28 08:11:10;;;;;;;3.97;0.80;;;24.20;36.10;;;;;;5092002;28;20052;-84
2022/05/28 08:13:36;;;;;;;4.25;1.10;;;24.60;36.40;;;;;;5109780;28;20031;-84
2022/05/28 08:16:02;;;;;;;2.03;0.70;;;24.80;36.00;;;;;;5109643;28;20028;-83
2022/05/28 08:18:28;;;;;;;4.13;1.00;;;24.70;34.70;;;;;;5108521;28;20027;-84
2022/05/28 08:23:41;;;;;;;9.35;0.98;;;24.30;35.30;;;;;;5114129;28;20040;-83
2022/05/28 08:26:11;;;;;;;3.25;1.25;;;24.10;34.30;;;;;;5113598;28;20024;-84
2022/05/28 08:28:38;;;;;;;3.95;1.00;;;24.10;33.80;;;;;;5112548;28;20027;-82
2022/05/28 08:31:05;;;;;;;8.25;1.23;;;24.00;34.50;;;;;;5113734;28;20063;-84
2022/05/28 08:33:32;;;;;;;2.78;0.95;;;24.00;35.70;;;;;;5113214;28;20035;-84
2022/05/28 08:35:59;;;;;;;2.72;0.75;;;23.90;35.40;;;;;;5113244;28;20015;-83
2022/05/28 08:38:26;;;;;;;4.47;0.80;;;23.90;36.80;;;;;;5111885;28;20415;-83
2022/05/28 08:41:00;;;;;;;4.53;1.10;;;24.00;37.10;;;;;;5112925;28;20535;-83
2022/05/28 08:43:34;;;;;;;7.28;1.58;;;24.10;36.90;;;;;;5112633;28;20043;-83
2022/05/28 08:46:00;;;;;;;5.03;1.15;;;24.30;37.00;;;;;;5112988;28;20031;-83
2022/05/28 08:48:54;;;;;;;5.00;0.85;;;25.10;36.50;;;;;;5112924;28;20030;-83
2022/05/28 08:51:38;;;;;;;7.63;1.10;;;26.00;34.60;;;;;;5111982;28;20039;-82
2022/05/28 08:54:10;;;;;;;4.95;1.00;;;26.70;32.70;;;;;;5111442;28;20118;-83
2022/05/28 08:56:37;;;;;;;3.00;0.80;;;27.40;30.70;;;;;;5112676;28;20023;-81
2022/05/28 08:59:12;;;;;;;5.00;0.90;;;27.80;29.10;;;;;;5094286;28;20027;-84
2022/05/28 09:01:40;;;;;;;4.13;0.77;;;27.80;27.90;;;;;;5112800;28;20023;-83
2022/05/28 09:04:13;;;;;;;4.55;0.90;;;27.90;27.40;;;;;;5111713;28;20091;-83
2022/05/28 09:06:45;;;;;;;7.72;1.55;;;28.20;27.50;;;;;;5111763;28;20070;-82
2022/05/28 09:09:15;;;;;;;6.30;1.45;;;28.30;27.60;;;;;;5111426;28;20023;-82
2022/05/28 09:11:57;;;;;;;4.78;0.95;;;28.60;27.70;;;;;;5111457;28;20369;-83
2022/05/28 09:14:30;;;;;;;4.75;1.17;;;29.10;27.60;;;;;;5111487;28;20081;-83
2022/05/28 09:17:02;;;;;;;5.03;1.02;;;29.70;27.00;;;;;;5111610;28;20027;-82
2022/05/28 09:19:33;;;;;;;4.30;0.80;;;30.20;26.50;;;;;;5111160;28;20027;-83
2022/05/28 09:21:58;;;;;;;2.50;0.73;;;30.20;25.70;;;;;;5110864;28;20019;-81
2022/05/28 09:24:30;;;;;;;4.18;0.98;;;30.20;26.30;;;;;;5111242;28;20046;-82
2022/05/28 09:27:09;;;;;;;4.45;1.15;;;30.50;26.50;;;;;;5111052;28;20396;-82
2022/05/28 09:29:54;;;;;;;4.10;0.90;;;30.20;25.60;;;;;;5110836;28;20058;-82
2022/05/28 09:32:47;;;;;;;4.53;1.38;;;29.20;25.90;;;;;;5109071;28;20023;-82
2022/05/28 09:35:43;;;;;;;3.50;1.08;;;28.10;26.80;;;;;;5110472;28;20066;-82
2022/05/28 09:38:19;;;;;;;3.45;0.88;;;27.60;27.40;;;;;;5109928;28;20023;-82
2022/05/28 09:40:53;;;;;;;7.95;1.17;;;27.30;28.10;;;;;;5111344;28;20039;-82
2022/05/28 09:43:40;;;;;;;4.78;1.10;;;27.30;28.10;;;;;;5110855;28;20393;-82
2022/05/28 09:46:31;;;;;;;5.72;1.08;;;26.90;28.60;;;;;;5110951;28;20039;-81
2022/05/28 09:49:10;;;;;;;4.90;1.35;;;26.90;29.20;;;;;;5109327;28;20492;-82
2022/05/28 09:51:36;;;;;;;6.25;0.95;;;27.10;28.90;;;;;;5110896;28;20027;-82
2022/05/28 09:54:20;;;;;;;6.50;1.30;;;27.30;28.50;;;;;;5110549;28;20072;-81
2022/05/28 09:57:03;;;;;;;5.88;1.00;;;27.50;28.90;;;;;;5110572;28;20395;-80
2022/05/28 09:59:35;;;;;;;4.35;0.80;;;27.50;28.70;;;;;;5102363;28;20023;-79
2022/05/28 10:02:22;;;;;;;4.53;1.20;;;27.50;28.40;;;;;;5110129;28;20027;-81
2022/05/28 10:04:54;;;;;;;3.53;1.17;;;27.50;28.20;;;;;;5108679;28;20080;-82
2022/05/28 10:07:45;;;;;;;11.70;1.15;;;27.40;27.80;;;;;;5109250;28;20024;-80
2022/05/28 10:10:32;;;;;;;4.95;1.30;;;27.00;28.20;;;;;;5110225;28;20405;-81
2022/05/28 10:13:18;;;;;;;5.53;1.10;;;26.60;28.10;;;;;;5110565;28;20020;-80
2022/05/28 10:15:51;;;;;;;5.93;0.88;;;26.10;28.90;;;;;;5110100;28;20024;-79
2022/05/28 10:18:38;;;;;;;6.80;1.08;;;25.70;29.50;;;;;;5110286;28;20032;-82
2022/05/28 10:21:20;;;;;;;6.95;1.25;;;25.50;28.40;;;;;;5109868;28;20036;-82
2022/05/28 10:24:00;;;;;;;5.10;1.08;;;25.30;29.10;;;;;;5110110;28;20134;-81
2022/05/28 10:26:38;;;;;;;3.97;0.77;;;25.10;30.70;;;;;;5111621;28;20500;-81
2022/05/28 10:29:38;;;;;;;4.93;0.77;;;25.00;31.70;;;;;;5110405;28;20019;-82
2022/05/28 10:32:17;;;;;;;5.00;1.23;;;24.90;31.00;;;;;;5108882;28;20012;-80
2022/05/28 10:34:42;;;;;;;4.57;1.35;;;24.70;30.80;;;;;;5109835;28;20032;-81
2022/05/28 10:37:17;;;;;;;3.95;0.80;;;24.60;30.20;;;;;;5109250;28;20030;-82
2022/05/28 10:39:43;;;;;;;2.60;0.75;;;24.50;30.50;;;;;;5109239;28;20054;-80
2022/05/28 10:42:11;;;;;;;2.47;0.68;;;24.50;31.20;;;;;;5110101;28;20059;-81
2022/05/28 10:44:39;;;;;;;1.90;0.50;;;24.50;30.80;;;;;;5109888;28;20400;-82
2022/05/28 10:47:10;;;;;;;6.18;0.85;;;24.30;30.10;;;;;;5110491;28;20905;-82
2022/05/28 10:49:50;;;;;;;3.08;0.80;;;24.00;30.80;;;;;;5110265;28;20034;-81
2022/05/28 10:52:34;;;;;;;9.43;0.80;;;23.70;31.80;;;;;;5108430;28;20035;-82
2022/05/28 10:55:07;;;;;;;6.75;0.73;;;23.60;32.20;;;;;;5108678;28;20102;-80
2022/05/28 10:58:04;;;;;;;4.07;0.80;;;23.50;33.00;;;;;;5112918;28;20093;-79
2022/05/28 11:00:48;;;;;;;;;;;23.30;32.50;;;;;;5110032;28;20028;-81
2022/05/28 11:03:26;;;;;;;4.05;1.00;;;23.30;32.60;;;;;;5108539;28;19990;-80
2022/05/28 11:06:18;;;;;;;5.53;0.90;;;23.20;32.50;;;;;;5109434;28;20656;-83
2022/05/28 11:09:14;;;;;;;6.72;0.85;;;23.10;33.00;;;;;;5109432;28;20012;-80
2022/05/28 11:12:14;;;;;;;3.90;0.70;;;23.20;33.40;;;;;;5109290;28;20080;-80
2022/05/28 11:14:58;;;;;;;3.97;0.73;;;23.30;33.10;;;;;;5109385;28;20546;-85
2022/05/28 11:17:48;;;;;;;1.65;0.63;;;23.20;32.70;;;;;;5107908;28;20551;-80
2022/05/28 11:20:23;;;;;;;5.53;0.60;;;23.30;32.90;;;;;;5109020;28;20024;-79
2022/05/28 11:23:04;;;;;;;3.58;0.70;;;23.40;31.60;;;;;;5108996;28;20055;-82
2022/05/28 11:25:41;;;;;;;1.58;0.70;;;23.60;32.10;;;;;;5108808;28;20552;-82
2022/05/28 11:28:09;;;;;;;2.38;0.50;;;23.50;31.20;;;;;;5107808;28;20033;-82
2022/05/28 11:30:41;;;;;;;2.20;0.60;;;23.30;31.00;;;;;;5109218;28;20076;-79
2022/05/28 11:33:28;;;;;;;4.57;0.68;;;23.10;32.40;;;;;;5107512;28;20617;-81
2022/05/28 11:36:03;;;;;;;3.60;0.70;;;23.00;32.30;;;;;;5107682;28;20802;-79
2022/05/28 11:38:54;;;;;;;3.08;0.77;;;22.90;32.20;;;;;;5107713;28;20028;-82
2022/05/28 11:41:27;;;;;;;5.03;0.50;;;22.90;32.30;;;;;;5108989;28;20103;-82
2022/05/28 11:44:17;;;;;;;4.50;0.93;;;23.00;32.50;;;;;;5107284;28;20063;-82
2022/05/28 11:47:18;;;;;;;8.13;0.80;;;23.30;32.80;;;;;;5107684;28;20027;-80
2022/05/28 11:52:54;;;;;;;2.80;0.85;;;23.70;32.80;;;;;;5106553;28;20042;-81
2022/05/28 11:55:25;;;;;;;10.30;1.10;;;23.60;31.60;;;;;;5111127;28;20456;-80
2022/05/28 11:58:00;;;;;;;1.60;0.60;;;23.50;31.50;;;;;;5112359;28;20042;-81
2022/05/28 12:00:30;;;;;;;1.95;0.47;;;23.20;31.90;;;;;;5112276;28;20065;-82
2022/05/28 12:03:11;;;;;;;3.15;0.77;;;23.10;32.60;;;;;;5112522;28;20027;-82
2022/05/28 12:06:02;;;;;;;2.92;0.77;;;23.10;31.70;;;;;;5112605;28;20039;-80
2022/05/28 12:08:30;;;;;;;5.40;1.20;;;22.90;31.50;;;;;;5085428;28;20035;-81
2022/05/28 12:11:04;;;;;;;5.80;0.70;;;22.70;31.90;;;;;;5111967;28;20034;-80
2022/05/28 12:13:35;;;;;;;2.67;0.98;;;22.80;32.50;;;;;;5111123;28;20069;-81
2022/05/28 12:16:12;;;;;;;4.03;0.60;;;22.80;31.70;;;;;;5110990;28;20046;-82
2022/05/28 12:18:53;;;;;;;3.10;0.50;;;22.90;31.40;;;;;;5111029;28;20498;-83
2022/05/28 12:21:25;;;;;;;2.65;0.60;;;23.00;30.60;;;;;;5112089;28;20119;-80
2022/05/28 12:24:23;;;;;;;7.43;0.85;;;23.00;30.30;;;;;;5111724;28;20063;-80
2022/05/28 12:26:56;;;;;;;3.00;0.60;;;23.10;30.90;;;;;;5111260;28;20110;-80
2022/05/28 12:29:26;;;;;;;3.78;0.40;;;23.10;30.50;;;;;;5110257;28;20024;-80
2022/05/28 12:31:52;;;;;;;3.20;0.70;;;23.10;29.20;;;;;;5110441;28;20032;-81
2022/05/28 12:34:24;;;;;;;3.13;0.73;;;23.10;29.20;;;;;;5111573;28;20073;-82
2022/05/28 12:36:53;;;;;;;6.25;0.70;;;23.30;29.30;;;;;;5111568;28;20035;-82
2022/05/28 12:39:40;;;;;;;6.45;0.73;;;23.30;29.40;;;;;;5110123;28;20032;-81
2022/05/28 12:42:23;;;;;;;2.83;0.60;;;23.20;29.80;;;;;;5111404;28;20105;-82
2022/05/28 12:44:50;;;;;;;2.55;0.50;;;23.10;29.90;;;;;;5125753;27;20151;-83
2022/05/28 12:47:36;;;;;;;9.98;0.70;;;23.00;29.70;;;;;;5143839;27;20026;-83
2022/05/28 12:50:47;;;;;;;6.80;0.50;;;22.90;29.80;;;;;;5152345;27;20095;-82
2022/05/28 12:53:20;;;;;;;2.10;0.50;;;22.80;28.90;;;;;;5134564;27;20030;-83
2022/05/28 12:55:57;;;;;;;4.88;0.68;;;22.80;28.10;;;;;;5153010;27;20027;-82
2022/05/28 12:58:23;;;;;;;4.05;0.57;;;22.80;28.50;;;;;;5125013;27;20035;-81
2022/05/28 13:00:54;;;;;;;5.80;0.60;;;22.80;28.70;;;;;;5112509;27;20472;-83
2022/05/28 13:03:24;;;;;;;3.95;0.90;;;22.80;29.20;;;;;;5112079;27;20087;-82
2022/05/28 13:06:08;;;;;;;3.45;0.70;;;23.10;29.10;;;;;;5127512;27;20104;-81
2022/05/28 13:08:34;;;;;;;4.85;1.00;;;23.20;29.50;;;;;;5131780;27;20027;-82
2022/05/28 13:11:22;;;;;;;4.25;0.57;;;23.30;29.90;;;;;;5113286;27;20027;-83
2022/05/28 13:14:25;;;;;;;3.90;0.50;;;23.40;29.20;;;;;;5131585;27;20035;-82
2022/05/28 13:17:36;;;;;;;4.80;0.82;;;23.40;29.00;;;;;;5113213;27;20119;-82
2022/05/28 13:20:29;;;;;;;6.68;0.70;;;23.50;28.50;;;;;;5094981;27;20502;-82